Time;durP1;ratioP1;P1;durP2;ratioP2;P2;SDS_P1;SDS_P2;PMS_P1;PMS_P2;Temp;Humidity;BMP_temperature;BMP_pressure;BME280_temperature;BME280_humidity;BME280_pressure;Samples;Min_cycle;Max_cycle;Signal;HPM_P1;HPM_P2
2022/08/09 00:01:47;;;;;;;5.87;5.28;;;;;;;20.97;75.96;100671.10;1816292;78;20977;-82
2022/08/09 00:04:09;;;;;;;7.45;5.40;;;;;;;20.95;75.97;100663.75;1815580;77;22543;-82
2022/08/09 00:06:37;;;;;;;8.75;5.33;;;;;;;20.94;75.97;100673.65;1816141;79;20985;-82
2022/08/09 00:09:03;;;;;;;8.08;5.60;;;;;;;20.93;75.96;100678.66;1822529;77;20936;-83
2022/08/09 00:11:30;;;;;;;6.95;5.95;;;;;;;20.91;76.12;100675.34;1825079;77;20973;-82
2022/08/09 00:13:56;;;;;;;6.97;5.62;;;;;;;20.89;76.26;100682.75;1800011;79;21081;-82
2022/08/09 00:16:23;;;;;;;5.92;5.33;;;;;;;20.86;76.32;100679.92;1815858;78;21909;-81
2022/08/09 00:18:49;;;;;;;7.00;5.42;;;;;;;20.86;76.38;100680.43;1799556;77;21470;-82
2022/08/09 00:21:15;;;;;;;6.97;5.83;;;;;;;20.83;76.48;100680.27;1782482;79;21057;-81
2022/08/09 00:23:42;;;;;;;6.58;5.80;;;;;;;20.82;76.56;100677.77;1766361;81;20946;-82
2022/08/09 00:26:09;;;;;;;6.22;5.62;;;;;;;20.83;76.58;100678.92;1769740;79;21046;-82
2022/08/09 00:28:35;;;;;;;7.00;5.60;;;;;;;20.82;76.64;100677.77;1785941;78;21953;-82
2022/08/09 00:31:04;;;;;;;6.50;5.35;;;;;;;20.81;76.65;100674.25;1802769;79;20972;-82
2022/08/09 00:33:30;;;;;;;5.90;5.30;;;;;;;20.80;76.65;100672.58;1791517;79;20988;-82
2022/08/09 00:35:58;;;;;;;7.20;5.30;;;;;;;20.78;76.63;100677.81;1739556;81;21985;-82
2022/08/09 00:38:25;;;;;;;6.28;5.40;;;;;;;20.79;76.70;100674.11;1764200;80;21000;-82
2022/08/09 00:40:52;;;;;;;6.05;5.45;;;;;;;20.75;76.76;100673.64;1767807;80;21825;-82
2022/08/09 00:43:20;;;;;;;7.55;5.67;;;;;;;20.76;76.75;100681.19;1764037;81;20992;-81
2022/08/09 00:45:47;;;;;;;7.72;5.60;;;;;;;20.74;76.74;100676.48;1776827;78;21036;-82
2022/08/09 00:48:14;;;;;;;6.92;5.72;;;;;;;20.73;76.89;100680.19;1776108;79;21033;-82
2022/08/09 00:50:40;;;;;;;6.97;5.45;;;;;;;20.69;77.07;100676.20;1783390;80;20999;-82
2022/08/09 00:53:07;;;;;;;6.80;5.40;;;;;;;20.65;77.15;100676.22;1783483;79;21909;-82
2022/08/09 00:55:33;;;;;;;6.87;5.37;;;;;;;20.63;77.23;100675.06;1772794;81;20932;-82
2022/08/09 00:57:59;;;;;;;7.12;5.35;;;;;;;20.58;77.32;100670.25;1784134;78;21036;-82
2022/08/09 01:00:26;;;;;;;6.08;5.53;;;;;;;20.57;77.49;100675.80;1784642;78;21020;-83
2022/08/09 01:03:16;;;;;;;6.50;5.90;;;;;;;20.53;77.67;100673.97;1783308;79;20931;-81
2022/08/09 01:05:58;;;;;;;5.80;5.30;;;;;;;20.51;77.76;100673.83;1799185;78;22634;-82
2022/08/09 01:09:10;;;;;;;7.72;5.70;;;;;;;20.49;77.91;100681.23;1742060;80;21383;-82
2022/08/09 01:12:14;;;;;;;7.70;5.72;;;;;;;20.49;77.98;100681.23;1772686;79;21071;-82
2022/08/09 01:14:47;;;;;;;7.47;5.85;;;;;;;20.47;78.13;100680.58;1774883;79;21387;-82
2022/08/09 01:17:28;;;;;;;8.13;5.92;;;;;;;20.46;78.21;100674.37;1775078;79;20951;-82
2022/08/09 01:20:08;;;;;;;7.80;5.50;;;;;;;20.44;78.29;100674.20;1775871;79;21922;-82
2022/08/09 01:23:03;;;;;;;8.65;5.70;;;;;;;20.43;78.37;100680.08;1773547;79;21403;-82
2022/08/09 01:25:56;;;;;;;6.83;5.67;;;;;;;20.46;78.39;100678.88;1772680;79;20960;-83
2022/08/09 01:28:22;;;;;;;7.25;5.45;;;;;;;20.43;78.46;100684.10;1772944;79;21074;-82
2022/08/09 01:30:49;;;;;;;6.10;5.50;;;;;;;20.43;78.56;100678.73;1772970;78;20999;-82
2022/08/09 01:33:16;;;;;;;6.78;5.87;;;;;;;20.44;78.53;100677.72;1772720;79;21899;-82
2022/08/09 01:36:02;;;;;;;6.20;5.55;;;;;;;20.44;78.53;100676.89;1783170;80;20954;-81
2022/08/09 01:38:32;;;;;;;8.20;5.87;;;;;;;20.43;78.45;100680.58;1784251;79;21085;-82
2022/08/09 01:41:07;;;;;;;7.65;5.85;;;;;;;20.41;78.46;100687.45;1783256;79;21424;-82
2022/08/09 01:43:38;;;;;;;6.55;5.72;;;;;;;20.39;78.56;100690.81;1783284;79;20959;-84
2022/08/09 01:46:05;;;;;;;6.55;5.37;;;;;;;20.36;78.65;100684.95;1812442;79;22636;-82
2022/08/09 01:48:33;;;;;;;5.87;5.22;;;;;;;20.36;78.65;100683.61;1735504;79;21008;-83
2022/08/09 01:51:00;;;;;;;6.67;5.28;;;;;;;20.38;78.62;100680.27;1783460;79;20979;-83
2022/08/09 01:53:26;;;;;;;6.55;5.60;;;;;;;20.37;78.60;100680.78;1786096;79;21022;-83
2022/08/09 01:55:53;;;;;;;6.30;5.70;;;;;;;20.35;78.58;100679.27;1804560;79;20924;-83
2022/08/09 01:58:19;;;;;;;6.50;5.80;;;;;;;20.34;78.59;100674.41;1796067;79;21876;-83
2022/08/09 02:00:46;;;;;;;5.95;5.40;;;;;;;20.32;78.66;100677.78;1772694;81;21452;-82
2022/08/09 02:03:13;;;;;;;8.10;5.83;;;;;;;20.32;78.66;100677.78;1772655;79;21442;-83
2022/08/09 02:05:43;;;;;;;6.42;5.80;;;;;;;20.30;78.70;100682.49;1772477;81;21378;-82
2022/08/09 02:08:12;;;;;;;7.22;5.40;;;;;;;20.29;78.71;100676.80;1783372;78;21063;-82
2022/08/09 02:10:42;;;;;;;7.85;5.58;;;;;;;20.29;78.75;100676.30;1783322;80;21827;-82
2022/08/09 02:13:11;;;;;;;6.87;5.75;;;;;;;20.29;78.81;100676.30;1790598;79;21052;-82
2022/08/09 02:15:40;;;;;;;6.58;5.97;;;;;;;20.28;78.93;100675.97;1783125;79;21485;-82
2022/08/09 02:18:06;;;;;;;6.30;5.70;;;;;;;20.26;79.02;100675.80;1782921;79;20976;-82
2022/08/09 02:20:39;;;;;;;8.33;6.03;;;;;;;20.24;79.07;100677.31;1783283;80;20937;-83
2022/08/09 02:23:23;;;;;;;8.35;5.80;;;;;;;20.23;79.21;100681.02;1781861;79;21813;-82
2022/08/09 02:25:51;;;;;;;7.30;5.87;;;;;;;20.21;79.25;100680.87;1788663;79;21486;-83
2022/08/09 02:28:29;;;;;;;7.03;5.78;;;;;;;20.20;79.33;100681.37;1783361;79;20975;-83
2022/08/09 02:31:12;;;;;;;7.37;6.12;;;;;;;20.21;79.35;100680.87;1797306;79;21179;-83
2022/08/09 02:33:42;;;;;;;6.83;6.03;;;;;;;20.19;79.42;100678.88;1798298;79;21014;-83
2022/08/09 02:36:13;;;;;;;7.42;5.33;;;;;;;20.16;79.46;100673.84;1772894;81;22556;-83
2022/08/09 02:38:49;;;;;;;6.28;5.60;;;;;;;20.14;79.57;100681.23;1772572;79;21171;-82
2022/08/09 02:41:23;;;;;;;7.55;5.75;;;;;;;20.13;79.68;100683.09;1783303;80;21519;-83
2022/08/09 02:43:51;;;;;;;6.28;5.50;;;;;;;20.11;79.76;100674.39;1783844;78;21463;-82
2022/08/09 02:46:17;;;;;;;7.25;5.78;;;;;;;20.13;79.78;100679.57;1804254;77;21514;-83
2022/08/09 02:48:44;;;;;;;7.62;6.35;;;;;;;20.15;79.78;100680.23;1821619;77;21687;-84
2022/08/09 02:51:12;;;;;;;9.70;5.70;;;;;;;20.14;79.76;100678.55;1816183;79;20970;-83
2022/08/09 02:53:45;;;;;;;8.33;5.90;;;;;;;20.14;79.77;100679.90;1791464;77;20978;-83
2022/08/09 02:56:11;;;;;;;;;;;;;;;20.13;79.85;100686.28;1835618;76;21344;-83
2022/08/09 02:58:38;;;;;;;7.62;5.60;;;;;;;20.11;79.90;100686.97;1816447;77;20192;-82
2022/08/09 03:01:06;;;;;;;7.65;5.80;;;;;;;20.10;79.85;100687.47;1824983;76;21832;-83
2022/08/09 03:03:32;;;;;;;6.53;5.92;;;;;;;20.10;79.85;100693.34;1821333;77;21378;-83
2022/08/09 03:05:59;;;;;;;6.87;5.35;;;;;;;20.10;79.84;100690.66;1849144;77;21022;-83
2022/08/09 03:08:26;;;;;;;6.87;5.83;;;;;;;20.12;79.80;100696.68;1849597;77;20974;-83
2022/08/09 03:10:52;;;;;;;7.47;5.42;;;;;;;20.13;79.70;100697.00;1843761;77;20987;-83
2022/08/09 03:13:20;;;;;;;6.30;5.70;;;;;;;20.13;79.63;100697.00;1789409;79;22052;-83
2022/08/09 03:15:47;;;;;;;6.95;5.60;;;;;;;20.15;79.59;100690.95;1816382;77;21555;-83
2022/08/09 03:18:13;;;;;;;6.33;5.35;;;;;;;20.17;79.49;100683.56;1816667;79;21381;-83
2022/08/09 03:20:41;;;;;;;8.35;5.20;;;;;;;20.18;79.39;100687.94;1812258;77;21494;-83
2022/08/09 03:23:07;;;;;;;6.28;5.30;;;;;;;20.17;79.34;100684.42;1777661;77;21516;-83
2022/08/09 03:25:34;;;;;;;6.33;5.67;;;;;;;20.16;79.31;100685.41;1791702;78;22618;-83
2022/08/09 03:28:02;;;;;;;7.87;5.47;;;;;;;20.14;79.37;100681.23;1772814;79;21486;-83
2022/08/09 03:30:29;;;;;;;7.72;5.28;;;;;;;20.13;79.40;100685.77;1783495;78;21467;-82
2022/08/09 03:32:56;;;;;;;5.85;5.35;;;;;;;20.15;79.42;100685.59;1783023;80;21582;-83
2022/08/09 03:35:22;;;;;;;8.38;5.55;;;;;;;20.14;79.52;100685.27;1785147;79;21357;-83
2022/08/09 03:37:49;;;;;;;8.53;5.35;;;;;;;20.16;79.53;100684.06;1793425;79;22532;-82
2022/08/09 03:40:15;;;;;;;6.85;5.58;;;;;;;20.18;79.54;100691.45;1815723;78;20916;-82
2022/08/09 03:42:43;;;;;;;6.15;5.55;;;;;;;20.20;79.51;100691.27;1800951;77;20987;-82
2022/08/09 03:45:10;;;;;;;7.33;5.85;;;;;;;20.18;79.46;100687.43;1788175;78;20988;-81
2022/08/09 03:47:38;;;;;;;6.83;5.28;;;;;;;20.18;79.46;100688.77;1773511;79;21047;-82
2022/08/09 03:50:05;;;;;;;6.00;5.37;;;;;;;20.23;79.43;100689.57;1772554;81;21893;-83
2022/08/09 03:52:33;;;;;;;7.53;5.80;;;;;;;20.26;79.37;100694.57;1773268;79;20932;-82
2022/08/09 03:54:59;;;;;;;9.10;5.70;;;;;;;20.27;79.33;100695.77;1783539;79;20976;-82
2022/08/09 03:57:25;;;;;;;7.03;5.65;;;;;;;20.28;79.27;100693.91;1787603;79;20992;-83
2022/08/09 03:59:52;;;;;;;6.15;5.37;;;;;;;20.28;79.25;100691.23;1772959;79;20995;-83
2022/08/09 04:02:19;;;;;;;7.05;5.75;;;;;;;20.30;79.24;100689.20;1783306;79;21879;-83
2022/08/09 04:04:46;;;;;;;7.25;5.47;;;;;;;20.32;79.21;100686.33;1800346;79;21369;-83
2022/08/09 04:07:12;;;;;;;7.15;5.40;;;;;;;20.33;79.14;100684.81;1786041;79;20949;-83
2022/08/09 04:09:39;;;;;;;7.78;5.65;;;;;;;20.37;79.10;100685.31;1798829;78;21510;-82
2022/08/09 04:12:17;;;;;;;6.95;6.20;;;;;;;20.40;78.99;100681.75;1769394;80;20921;-82
2022/08/09 04:14:43;;;;;;;6.62;5.97;;;;;;;20.43;78.84;100685.44;1760852;79;21786;-82
2022/08/09 04:17:10;;;;;;;6.70;5.97;;;;;;;20.46;78.77;100685.58;1784639;79;21027;-83
2022/08/09 04:19:36;;;;;;;8.55;6.45;;;;;;;20.49;78.68;100687.42;1772988;79;21050;-82
2022/08/09 04:22:02;;;;;;;7.55;6.72;;;;;;;20.50;78.59;100678.36;1772530;81;20950;-82
2022/08/09 04:24:30;;;;;;;8.05;7.25;;;;;;;20.54;78.50;100682.84;1783358;79;20999;-83
2022/08/09 04:26:57;;;;;;;8.58;6.53;;;;;;;20.56;78.32;100683.02;1804215;79;21949;-84
2022/08/09 04:29:23;;;;;;;10.20;7.22;;;;;;;20.61;78.20;100678.95;1779212;78;20944;-83
2022/08/09 04:31:52;;;;;;;8.65;7.03;;;;;;;20.63;78.05;100677.75;1772858;81;21529;-82
2022/08/09 04:34:20;;;;;;;9.35;6.60;;;;;;;20.63;77.91;100683.63;1774344;78;21023;-83
2022/08/09 04:36:46;;;;;;;7.75;6.95;;;;;;;20.66;77.84;100685.97;1772917;81;21019;-82
2022/08/09 04:39:12;;;;;;;9.05;7.22;;;;;;;20.69;77.73;100689.62;1772676;79;21967;-82
2022/08/09 04:41:39;;;;;;;8.80;6.80;;;;;;;20.73;77.58;100689.08;1772901;78;20916;-83
2022/08/09 04:44:10;;;;;;;7.92;6.67;;;;;;;20.77;77.49;100690.91;1779901;78;21497;-83
2022/08/09 04:46:34;;;;;;;7.85;6.83;;;;;;;20.81;77.30;100693.55;1779905;78;21094;-82
2022/08/09 04:49:01;;;;;;;8.03;6.17;;;;;;;20.82;77.03;100688.50;1772446;81;20960;-80
2022/08/09 04:51:28;;;;;;;7.85;6.28;;;;;;;20.82;76.85;100683.97;1773696;79;21890;-82
2022/08/09 04:53:55;;;;;;;7.95;6.67;;;;;;;20.83;76.72;100684.29;1775315;79;20938;-82
2022/08/09 04:56:21;;;;;;;7.22;6.50;;;;;;;20.85;76.67;100693.02;1803254;77;21457;-82
2022/08/09 04:58:47;;;;;;;10.93;6.85;;;;;;;20.86;76.55;100696.54;1810245;78;21517;-82
2022/08/09 05:01:14;;;;;;;7.03;6.33;;;;;;;20.88;76.40;100699.04;1830458;78;21486;-81
2022/08/09 05:03:40;;;;;;;6.72;6.05;;;;;;;20.88;76.35;100696.36;1820931;77;21871;-82
2022/08/09 05:06:07;;;;;;;7.95;6.55;;;;;;;20.84;76.27;100698.07;1830400;77;21061;-82
2022/08/09 05:08:34;;;;;;;8.50;6.22;;;;;;;20.82;76.30;100700.59;1799637;78;20946;-83
2022/08/09 05:11:01;;;;;;;8.45;6.72;;;;;;;20.85;76.42;100710.98;1797784;79;20955;-82
2022/08/09 05:13:28;;;;;;;8.95;6.50;;;;;;;20.87;76.32;100710.29;1812954;78;20994;-82
2022/08/09 05:15:54;;;;;;;7.70;6.85;;;;;;;20.90;76.23;100710.42;1797963;78;22580;-82
2022/08/09 05:18:21;;;;;;;8.65;6.22;;;;;;;20.91;75.95;100706.72;1798196;78;20967;-83
2022/08/09 05:20:47;;;;;;;7.45;6.12;;;;;;;20.94;76.00;100703.19;1821205;78;21042;-83
2022/08/09 05:23:14;;;;;;;8.08;6.40;;;;;;;21.00;75.87;100705.64;1803491;78;20935;-83
2022/08/09 05:25:40;;;;;;;9.00;6.22;;;;;;;21.01;75.76;100700.08;1799258;78;21429;-83
2022/08/09 05:28:07;;;;;;;7.35;6.17;;;;;;;21.01;75.49;100704.63;1798064;78;21846;-83
2022/08/09 05:30:34;;;;;;;9.13;6.35;;;;;;;21.06;75.57;100717.84;1797833;78;20939;-83
2022/08/09 05:33:00;;;;;;;6.92;6.20;;;;;;;21.13;75.51;100719.27;1773103;79;21009;-83
2022/08/09 05:35:27;;;;;;;8.28;6.85;;;;;;;21.16;75.28;100714.90;1774432;79;21084;-82
2022/08/09 05:37:54;;;;;;;7.62;6.62;;;;;;;21.23;75.21;100717.67;1749931;81;21312;-81
2022/08/09 05:40:21;;;;;;;8.03;6.92;;;;;;;21.29;75.01;100709.76;1795346;78;21896;-82
2022/08/09 05:42:48;;;;;;;9.50;7.08;;;;;;;21.28;74.76;100713.97;1773241;81;21083;-83
2022/08/09 05:45:14;;;;;;;9.08;6.40;;;;;;;21.28;74.77;100711.28;1814720;78;20966;-83
2022/08/09 05:47:41;;;;;;;7.60;6.78;;;;;;;21.30;74.60;100707.91;1830708;77;20974;-82
2022/08/09 05:50:08;;;;;;;7.17;6.50;;;;;;;21.29;74.52;100703.55;1819842;77;21029;-82
2022/08/09 05:52:35;;;;;;;8.65;6.72;;;;;;;21.33;74.63;100706.21;1813880;79;21810;-83
2022/08/09 05:55:02;;;;;;;7.28;6.42;;;;;;;21.40;74.50;100701.75;1839884;77;20957;-83
2022/08/09 05:57:29;;;;;;;7.37;6.40;;;;;;;21.45;74.24;100702.05;1844868;77;21473;-83
2022/08/09 05:59:55;;;;;;;7.87;6.55;;;;;;;21.47;74.00;100704.03;1814048;76;21425;-83
2022/08/09 06:02:22;;;;;;;7.55;6.55;;;;;;;21.52;73.91;100693.58;1814321;79;20930;-84
2022/08/09 06:04:48;;;;;;;7.17;6.45;;;;;;;21.58;73.79;100694.16;1833367;77;22308;-84
2022/08/09 06:07:15;;;;;;;7.28;6.42;;;;;;;21.66;73.65;100695.41;1818522;77;21049;-83
2022/08/09 06:09:42;;;;;;;7.75;6.78;;;;;;;21.76;73.53;100692.95;1814071;79;20962;-84
2022/08/09 06:12:10;;;;;;;9.78;6.85;;;;;;;21.82;73.30;100689.53;1842803;77;21014;-83
2022/08/09 06:14:36;;;;;;;11.48;10.13;;;;;;;21.87;73.10;100689.78;1847636;77;20923;-82
2022/08/09 06:17:03;;;;;;;18.37;16.45;;;;;;;21.94;72.94;100696.09;1821177;77;21945;-83
2022/08/09 06:19:30;;;;;;;9.85;8.50;;;;;;;22.00;72.72;100696.66;1795067;77;20981;-83
2022/08/09 06:21:56;;;;;;;12.73;11.12;;;;;;;22.10;72.65;100693.22;1793747;80;20992;-82
2022/08/09 06:24:23;;;;;;;17.27;15.43;;;;;;;22.18;72.29;100689.05;1828513;76;21029;-84
2022/08/09 06:26:49;;;;;;;14.80;13.30;;;;;;;22.26;72.20;100688.10;1842248;77;21527;-82
2022/08/09 06:29:15;;;;;;;19.23;17.23;;;;;;;22.31;71.61;100685.69;1823694;77;22424;-83
2022/08/09 06:31:42;;;;;;;9.08;7.85;;;;;;;22.34;71.38;100686.64;1823785;77;20962;-81
2022/08/09 06:34:08;;;;;;;11.28;7.10;;;;;;;22.34;71.04;100687.98;1838335;77;20966;-81
2022/08/09 06:36:35;;;;;;;7.22;6.55;;;;;;;22.36;70.92;100684.59;1847369;77;20911;-81
2022/08/09 06:39:01;;;;;;;9.35;6.62;;;;;;;22.36;70.42;100687.28;1821405;77;20942;-82
2022/08/09 06:41:28;;;;;;;7.53;6.80;;;;;;;22.37;70.50;100685.42;1847179;77;21816;-82
2022/08/09 06:43:56;;;;;;;13.15;6.60;;;;;;;22.39;70.42;100684.23;1847118;77;21053;-81
2022/08/09 06:46:23;;;;;;;7.90;6.40;;;;;;;22.41;70.44;100682.17;1846398;77;20934;-84
2022/08/09 06:48:49;;;;;;;8.93;6.62;;;;;;;22.46;70.16;100685.63;1847319;77;20993;-83
2022/08/09 06:51:15;;;;;;;7.08;6.37;;;;;;;22.55;69.98;100683.12;1847698;77;20969;-80
2022/08/09 06:53:42;;;;;;;8.93;6.30;;;;;;;22.59;69.54;100675.52;1847844;77;21899;-77
2022/08/09 06:56:08;;;;;;;6.90;6.20;;;;;;;22.66;69.71;100673.18;1847844;77;21034;-79
2022/08/09 06:58:36;;;;;;;7.28;6.05;;;;;;;22.76;69.34;100683.11;1847528;77;20947;-76
2022/08/09 07:01:03;;;;;;;7.25;5.92;;;;;;;22.85;69.33;100687.87;1846258;77;20934;-81
2022/08/09 07:03:32;;;;;;;6.97;6.28;;;;;;;22.98;68.77;100690.70;1831689;77;20997;-80
2022/08/09 07:05:58;;;;;;;7.25;5.75;;;;;;;23.06;68.38;100691.05;1814349;79;23689;-77
2022/08/09 07:08:24;;;;;;;6.62;6.00;;;;;;;23.12;68.18;100685.72;1814550;79;20978;-75
2022/08/09 07:10:51;;;;;;;9.85;6.50;;;;;;;23.22;68.15;100682.68;1814343;79;21034;-81
2022/08/09 07:13:17;;;;;;;8.68;6.22;;;;;;;23.31;67.70;100682.84;1815074;76;21021;-80
2022/08/09 07:15:44;;;;;;;8.98;6.20;;;;;;;23.37;67.22;100687.45;1814534;79;20918;-79
2022/08/09 07:18:10;;;;;;;8.25;5.95;;;;;;;23.45;67.04;100695.05;1815309;77;21813;-80
2022/08/09 07:20:37;;;;;;;10.35;5.80;;;;;;;23.45;66.83;100692.35;1814478;79;21041;-81
2022/08/09 07:23:03;;;;;;;7.55;6.20;;;;;;;23.55;67.21;100688.30;1814460;79;20938;-79
2022/08/09 07:25:30;;;;;;;6.35;5.70;;;;;;;23.66;66.88;100691.81;1814283;79;21002;-80
2022/08/09 07:27:57;;;;;;;9.88;7.33;;;;;;;23.80;66.98;100697.26;1814285;79;21562;-82
2022/08/09 07:30:24;;;;;;;17.62;16.05;;;;;;;23.91;66.66;100695.33;1814237;79;21936;-83
2022/08/09 07:32:51;;;;;;;14.63;11.75;;;;;;;23.96;65.79;100692.36;1814167;79;20922;-81
2022/08/09 07:35:17;;;;;;;6.75;6.05;;;;;;;23.98;65.49;100696.20;1815668;77;21029;-80
2022/08/09 07:37:43;;;;;;;6.28;5.65;;;;;;;23.99;65.67;100700.04;1815135;77;20926;-80
2022/08/09 07:40:13;;;;;;;6.25;5.65;;;;;;;24.06;65.37;100708.69;1815405;76;20978;-80
2022/08/09 07:42:55;;;;;;;7.47;6.05;;;;;;;24.12;65.48;100707.34;1791351;79;21932;-81
2022/08/09 07:45:28;;;;;;;5.85;5.35;;;;;;;24.21;65.23;100706.65;1814681;79;20930;-79
2022/08/09 07:47:56;;;;;;;8.40;5.60;;;;;;;24.27;64.42;100714.78;1814702;79;23756;-80
2022/08/09 07:50:26;;;;;;;8.05;5.22;;;;;;;24.31;63.85;100713.88;1809439;78;21006;-79
2022/08/09 07:52:53;;;;;;;5.95;5.08;;;;;;;24.35;63.75;100715.15;1790770;78;20935;-80
2022/08/09 07:55:20;;;;;;;5.50;5.00;;;;;;;24.31;62.54;100712.52;1789620;78;22213;-80
2022/08/09 07:57:49;;;;;;;5.60;4.80;;;;;;;24.25;62.67;100725.47;1790007;79;20951;-80
2022/08/09 08:00:17;;;;;;;7.03;4.85;;;;;;;24.22;62.79;100723.16;1789835;79;20950;-81
2022/08/09 08:02:43;;;;;;;6.40;5.03;;;;;;;24.28;63.10;100727.76;1768642;79;20977;-81
2022/08/09 08:05:10;;;;;;;5.35;4.83;;;;;;;24.43;63.31;100726.29;1806084;78;20987;-82
2022/08/09 08:07:36;;;;;;;7.53;5.30;;;;;;;24.52;62.77;100725.06;1822046;77;21872;-82
2022/08/09 08:10:04;;;;;;;7.58;5.03;;;;;;;24.57;62.98;100726.62;1821103;77;21466;-83
2022/08/09 08:12:31;;;;;;;5.60;4.95;;;;;;;24.73;62.94;100726.77;1822170;77;21034;-81
2022/08/09 08:14:57;;;;;;;6.78;4.80;;;;;;;24.83;62.45;100728.02;1822351;77;21003;-80
2022/08/09 08:17:24;;;;;;;6.62;4.80;;;;;;;24.92;61.79;100728.65;1822058;78;20966;-80
2022/08/09 08:19:51;;;;;;;6.00;4.85;;;;;;;25.00;61.73;100728.45;1822302;78;21751;-81
2022/08/09 08:22:17;;;;;;;13.10;11.78;;;;;;;25.10;60.71;100730.77;1772909;78;21005;-81
2022/08/09 08:24:44;;;;;;;7.80;7.00;;;;;;;25.18;60.14;100734.59;1822281;78;20959;-81
2022/08/09 08:27:10;;;;;;;6.78;6.10;;;;;;;25.25;59.66;100731.37;1781868;79;21010;-82
2022/08/09 08:29:37;;;;;;;5.20;4.70;;;;;;;25.27;59.19;100730.63;1789759;79;21010;-77
2022/08/09 08:32:03;;;;;;;6.62;4.78;;;;;;;25.27;59.53;100731.16;1790679;78;21726;-79
2022/08/09 08:34:30;;;;;;;7.62;4.45;;;;;;;25.31;59.38;100729.71;1816323;77;20984;-80
2022/08/09 08:36:57;;;;;;;5.60;4.80;;;;;;;25.26;58.71;100730.33;1798015;78;21002;-79
2022/08/09 08:39:24;;;;;;;6.25;4.65;;;;;;;25.15;58.98;100728.26;1742684;81;21372;-80
2022/08/09 08:41:50;;;;;;;6.62;4.85;;;;;;;25.02;59.33;100728.27;1796878;78;20983;-78
2022/08/09 08:44:19;;;;;;;6.55;5.00;;;;;;;24.95;59.48;100734.98;1767547;81;22512;-81
2022/08/09 08:46:46;;;;;;;7.17;5.00;;;;;;;24.90;59.54;100737.98;1801136;78;20867;-80
2022/08/09 08:49:12;;;;;;;5.60;4.92;;;;;;;24.87;59.78;100741.10;1790801;79;21480;-78
2022/08/09 08:51:39;;;;;;;4.80;4.40;;;;;;;24.88;59.97;100736.84;1797720;77;21391;-77
2022/08/09 08:54:06;;;;;;;5.25;4.30;;;;;;;24.93;59.84;100732.18;1815944;78;20944;-77
2022/08/09 08:56:37;;;;;;;6.65;4.62;;;;;;;24.96;59.91;100735.81;1794973;78;21948;-76
2022/08/09 08:59:11;;;;;;;5.00;4.53;;;;;;;24.97;59.20;100730.19;1774361;79;22540;-78
2022/08/09 09:01:40;;;;;;;5.65;4.65;;;;;;;24.99;59.02;100731.33;1803114;78;21480;-78
2022/08/09 09:04:12;;;;;;;5.10;4.60;;;;;;;25.07;59.07;100725.23;1755384;79;21629;-79
2022/08/09 09:06:42;;;;;;;8.73;4.55;;;;;;;25.20;59.27;100722.23;1776234;79;21098;-77
2022/08/09 09:09:10;;;;;;;6.08;5.53;;;;;;;25.40;59.30;100723.05;1795140;78;21895;-77
2022/08/09 09:11:37;;;;;;;16.55;14.53;;;;;;;25.68;58.84;100718.73;1773359;79;20961;-77
2022/08/09 09:14:20;;;;;;;6.67;5.80;;;;;;;25.87;57.68;100719.22;1828163;78;20915;-79
2022/08/09 09:16:47;;;;;;;5.10;4.60;;;;;;;26.00;57.46;100718.33;1798323;78;21027;-73
2022/08/09 09:19:13;;;;;;;4.22;3.83;;;;;;;26.01;56.60;100715.92;1799181;78;20974;-77
2022/08/09 09:22:08;;;;;;;59.73;54.10;;;;;;;26.05;56.75;100713.61;1797730;79;22398;-77
2022/08/09 09:24:39;;;;;;;21.97;19.77;;;;;;;26.15;56.74;100711.27;1801250;78;20930;-77
2022/08/09 09:27:08;;;;;;;21.27;19.20;;;;;;;26.31;56.21;100710.78;1830264;78;21516;-77
2022/08/09 09:29:41;;;;;;;6.12;4.45;;;;;;;26.35;55.16;100710.67;1809831;78;21125;-79
2022/08/09 09:32:08;;;;;;;4.00;3.50;;;;;;;26.35;54.99;100717.44;1797850;79;21085;-76
2022/08/09 09:34:38;;;;;;;4.45;3.40;;;;;;;26.31;54.58;100716.72;1804958;78;21797;-76
2022/08/09 09:37:05;;;;;;;3.85;3.12;;;;;;;26.32;54.54;100710.25;1830302;78;21397;-75
2022/08/09 09:39:32;;;;;;;4.20;3.10;;;;;;;26.41;54.27;100703.56;1830540;77;20951;-75
2022/08/09 09:41:58;;;;;;;5.72;3.12;;;;;;;26.46;53.58;100695.11;1830498;77;21018;-77
2022/08/09 09:44:29;;;;;;;4.03;3.10;;;;;;;26.49;54.37;100695.19;1830566;77;20931;-77
2022/08/09 09:47:06;;;;;;;4.55;2.95;;;;;;;26.57;54.27;100694.93;1829945;77;21930;-75
2022/08/09 09:49:32;;;;;;;4.33;2.83;;;;;;;26.57;52.57;100694.09;1830716;78;20928;-75
2022/08/09 09:52:04;;;;;;;3.00;2.70;;;;;;;26.59;53.31;100691.47;1817397;77;21005;-75
2022/08/09 09:54:42;;;;;;;6.63;2.90;;;;;;;26.71;53.05;100686.99;1797102;79;21449;-75
2022/08/09 09:57:22;;;;;;;3.70;2.72;;;;;;;26.82;52.61;100692.22;1789632;79;21014;-72
2022/08/09 09:59:51;;;;;;;2.98;2.55;;;;;;;26.94;52.73;100696.43;1789998;80;21787;-76
2022/08/09 10:02:19;;;;;;;3.35;2.60;;;;;;;27.13;52.34;100691.39;1789497;80;21014;-76
2022/08/09 10:05:07;;;;;;;3.85;2.40;;;;;;;27.31;51.37;100687.85;1789873;79;21529;-75
2022/08/09 10:07:34;;;;;;;2.67;2.47;;;;;;;27.38;50.66;100688.09;1770215;80;20935;-74
2022/08/09 10:10:02;;;;;;;2.50;2.30;;;;;;;27.38;50.22;100690.80;1794313;79;21005;-73
2022/08/09 10:12:37;;;;;;;2.58;2.20;;;;;;;27.49;49.49;100689.23;1799516;78;22341;-75
2022/08/09 10:15:16;;;;;;;2.47;2.20;;;;;;;27.50;49.33;100692.23;1769526;78;21617;-76
2022/08/09 10:17:46;;;;;;;2.42;2.02;;;;;;;27.46;49.19;100693.76;1766533;79;20950;-75
2022/08/09 10:20:24;;;;;;;2.25;1.90;;;;;;;27.50;49.64;100700.91;1796687;78;21575;-75
2022/08/09 10:22:54;;;;;;;2.65;2.08;;;;;;;27.57;48.02;100686.75;1766544;81;21005;-75
2022/08/09 10:25:22;;;;;;;2.10;1.90;;;;;;;27.60;48.62;100688.51;1817393;78;21773;-75
2022/08/09 10:27:49;;;;;;;4.28;2.10;;;;;;;27.71;48.87;100682.88;1795969;78;20997;-75
2022/08/09 10:30:16;;;;;;;2.35;2.00;;;;;;;27.86;49.17;100684.66;1781044;79;21369;-75
2022/08/09 10:32:43;;;;;;;2.47;1.90;;;;;;;27.99;48.37;100682.33;1780663;80;21536;-75
2022/08/09 10:35:09;;;;;;;2.02;1.82;;;;;;;28.03;47.32;100672.65;1781129;80;20998;-75
2022/08/09 10:37:36;;;;;;;2.72;1.98;;;;;;;28.01;47.90;100680.20;1780687;79;21930;-75
2022/08/09 10:40:05;;;;;;;3.65;1.92;;;;;;;28.13;48.32;100670.22;1780646;79;21058;-75
2022/08/09 10:42:32;;;;;;;2.15;1.70;;;;;;;28.31;47.86;100672.62;1789589;78;20979;-74
2022/08/09 10:45:03;;;;;;;1.87;1.75;;;;;;;28.35;46.81;100673.27;1770092;79;21073;-75
2022/08/09 10:48:06;;;;;;;2.70;2.12;;;;;;;28.44;47.29;100673.77;1789935;79;21461;-74
2022/08/09 10:51:13;;;;;;;3.20;2.00;;;;;;;28.43;46.94;100665.33;1789770;78;21910;-75
2022/08/09 10:54:04;;;;;;;3.20;2.00;;;;;;;28.50;48.07;100656.02;1790019;80;21034;-74
2022/08/09 10:56:35;;;;;;;2.65;1.87;;;;;;;28.83;47.41;100655.17;1773858;79;20987;-74
2022/08/09 10:59:28;;;;;;;2.30;2.10;;;;;;;29.18;47.90;100656.58;1790069;79;20944;-75
2022/08/09 11:01:54;;;;;;;5.62;1.98;;;;;;;29.42;45.30;100658.20;1783657;79;20978;-75
2022/08/09 11:04:23;;;;;;;2.55;1.90;;;;;;;29.36;44.60;100655.91;1783671;80;21753;-74
2022/08/09 11:07:01;;;;;;;5.78;1.98;;;;;;;29.36;44.60;100655.91;1755355;79;20984;-75
2022/08/09 11:09:46;;;;;;;2.67;2.17;;;;;;;29.26;44.12;100648.06;1775487;80;21018;-75
2022/08/09 11:12:24;;;;;;;2.65;2.08;;;;;;;29.08;44.34;100659.90;1783394;80;20998;-74
2022/08/09 11:14:53;;;;;;;2.20;2.00;;;;;;;28.97;44.55;100653.39;1783667;80;20975;-76
2022/08/09 11:17:26;;;;;;;2.55;1.90;;;;;;;28.83;45.00;100679.11;1784362;79;21909;-74
2022/08/09 11:20:00;;;;;;;2.80;2.07;;;;;;;28.66;45.30;100650.95;1783895;79;20951;-75
2022/08/09 11:22:47;;;;;;;3.40;2.10;;;;;;;28.61;46.11;100650.84;1783316;80;20990;-74
2022/08/09 11:25:21;;;;;;;2.33;2.10;;;;;;;28.60;45.86;100654.63;1772645;80;20960;-75
2022/08/09 11:27:50;;;;;;;3.47;2.45;;;;;;;28.68;46.09;100655.64;1759931;78;21050;-75
2022/08/09 11:30:32;;;;;;;3.85;1.95;;;;;;;28.68;46.09;100655.64;1768603;80;21813;-75
2022/08/09 11:33:17;;;;;;;2.65;1.90;;;;;;;28.80;46.36;100655.95;1781372;80;20935;-75
2022/08/09 11:35:55;;;;;;;2.55;1.87;;;;;;;28.93;45.49;100654.91;1783384;80;20943;-75